logo
Rechercher aéroport 
image banner adimage banner adimage banner ad
image banner ad

EGLID - London Isle of Dogs

Situé à Londres, United Kingdom

ICAO - , IATA -

Données fournies par Airmate  

Information générale

Coordonnées: N51°29'26" W0°1'32"
Élévation : 33 feet MSL.
Variation magnétique : 0° East
Voir autres Aéroports à England

Données opérationnelles

Special qualification required
Heure actuelle UTC:
Heure actuelle locale:
Météo à : EGLC - London/City ( 6 km )
METAR: EGLC 062320Z AUTO 00000KT 9999 NCD 03/02 Q1039
TAF: TAF EGLC 040804Z 0409/0415 27005KT 9999 SCT030 PROB30 TEMPO 0409/0410 7000 BKN014
Voir NOTAMs / SUP AIP / TFR affectant cet aéroport [VIEW]
Fréquences de communication: [VIEW]

Pistes:

Coordonnées de l'aéroport

Adresse: Londres United Kingdom

Vue satellite de EGLID